Time;durP1;ratioP1;P1;durP2;ratioP2;P2;SDS_P1;SDS_P2;PMS_P1;PMS_P2;Temp;Humidity;BMP_temperature;BMP_pressure;BME280_temperature;BME280_humidity;BME280_pressure;Samples;Min_cycle;Max_cycle;Signal;HPM_P1;HPM_P2
2022/05/30 00:01:32;;;;;;;4.73;1.83;;;9.10;99.90;;;;;;4862342;29;20124;-84
2022/05/30 00:03:58;;;;;;;4.17;1.50;;;9.10;99.90;;;;;;4864804;29;20112;-83
2022/05/30 00:06:25;;;;;;;5.27;1.67;;;9.10;99.90;;;;;;4880873;29;20129;-83
2022/05/30 00:08:51;;;;;;;5.47;1.53;;;9.00;99.90;;;;;;4862041;29;21023;-83
2022/05/30 00:11:18;;;;;;;5.00;1.60;;;9.00;99.90;;;;;;4874308;29;20049;-83
2022/05/30 00:13:44;;;;;;;4.13;1.57;;;9.00;99.90;;;;;;4851095;29;20099;-83
2022/05/30 00:16:12;;;;;;;3.10;1.50;;;8.90;99.90;;;;;;4861934;29;20495;-83
2022/05/30 00:18:38;;;;;;;10.03;1.67;;;8.90;99.90;;;;;;4865258;29;20415;-83
2022/05/30 00:21:05;;;;;;;4.20;1.53;;;8.80;99.90;;;;;;4862503;29;20067;-84
2022/05/30 00:23:31;;;;;;;5.73;2.03;;;8.80;99.90;;;;;;4866695;29;20036;-82
2022/05/30 00:25:56;;;;;;;3.57;1.53;;;8.70;99.90;;;;;;4868327;29;20806;-83
2022/05/30 00:28:22;;;;;;;5.10;1.63;;;8.70;99.90;;;;;;4862844;29;20056;-82
2022/05/30 00:30:49;;;;;;;6.67;2.00;;;8.70;99.90;;;;;;4860985;29;20048;-84
2022/05/30 00:33:16;;;;;;;7.60;1.70;;;8.60;99.90;;;;;;4858165;29;20064;-84
2022/05/30 00:35:44;;;;;;;4.30;2.10;;;8.60;99.90;;;;;;4862867;29;20064;-84
2022/05/30 00:38:10;;;;;;;4.80;1.80;;;8.50;99.90;;;;;;4859541;29;20898;-84
2022/05/30 00:40:37;;;;;;;5.60;1.60;;;8.50;99.90;;;;;;4860130;29;20050;-83
2022/05/30 00:43:24;;;;;;;3.93;1.90;;;8.40;99.90;;;;;;4862301;29;20044;-84
2022/05/30 00:45:51;;;;;;;6.83;1.87;;;8.40;99.90;;;;;;4845965;29;20045;-86
2022/05/30 00:48:19;;;;;;;6.40;1.60;;;8.30;99.90;;;;;;4844144;29;20045;-87
2022/05/30 00:50:48;;;;;;;2.30;1.67;;;8.20;99.90;;;;;;4880246;29;20049;-86
2022/05/30 00:53:13;;;;;;;4.53;1.37;;;8.30;99.90;;;;;;4862462;29;20048;-86
2022/05/30 00:55:40;;;;;;;6.60;1.63;;;8.20;99.90;;;;;;4862306;29;20041;-86
2022/05/30 00:58:07;;;;;;;8.53;1.67;;;8.10;99.90;;;;;;4864763;29;20048;-86
2022/05/30 01:00:33;;;;;;;6.03;1.90;;;8.20;99.90;;;;;;4880734;29;20044;-86
2022/05/30 01:08:32;;;;;;;8.37;1.70;;;8.10;99.90;;;;;;4885985;29;20056;-87
2022/05/30 01:10:59;;;;;;;3.53;1.87;;;8.10;99.90;;;;;;4865109;29;20040;-87
2022/05/30 01:13:27;;;;;;;6.50;1.77;;;8.00;99.90;;;;;;4849099;29;20071;-86
2022/05/30 01:15:54;;;;;;;5.50;1.73;;;8.00;99.90;;;;;;4865823;29;20064;-86
2022/05/30 01:18:34;;;;;;;3.57;1.67;;;8.00;99.90;;;;;;4850092;29;20467;-86
2022/05/30 01:21:29;;;;;;;5.43;1.47;;;7.90;99.90;;;;;;4878891;29;20590;-86
2022/05/30 01:24:35;;;;;;;7.87;1.80;;;7.90;99.90;;;;;;4868234;29;20049;-86
2022/05/30 01:27:36;;;;;;;4.77;1.70;;;7.80;99.90;;;;;;4881084;29;20052;-87
2022/05/30 01:30:10;;;;;;;3.43;1.67;;;7.70;99.90;;;;;;4803483;29;20562;-83
2022/05/30 01:32:36;;;;;;;3.97;1.50;;;7.70;99.90;;;;;;4872794;29;20145;-84
2022/05/30 01:35:02;;;;;;;4.77;1.50;;;7.60;99.90;;;;;;4881336;29;20124;-84
2022/05/30 01:37:28;;;;;;;3.97;2.40;;;7.60;99.90;;;;;;4881284;29;20104;-84
2022/05/30 01:39:54;;;;;;;6.27;2.30;;;7.50;99.90;;;;;;4883503;29;20044;-83
2022/05/30 01:42:20;;;;;;;6.67;2.10;;;7.50;99.90;;;;;;4850544;29;20150;-84
2022/05/30 01:44:45;;;;;;;3.00;1.73;;;7.50;99.90;;;;;;4868158;29;20059;-84
2022/05/30 01:47:11;;;;;;;4.53;1.93;;;7.50;99.90;;;;;;4862331;29;20049;-84
2022/05/30 01:49:37;;;;;;;3.37;1.60;;;7.40;99.90;;;;;;4877957;29;20084;-84
2022/05/30 01:52:03;;;;;;;7.40;2.27;;;7.40;99.90;;;;;;4871101;29;20198;-84
2022/05/30 01:54:29;;;;;;;6.40;2.07;;;7.40;99.90;;;;;;4864636;29;20049;-84
2022/05/30 01:56:54;;;;;;;3.70;1.87;;;7.40;99.90;;;;;;4880378;29;20056;-84
2022/05/30 01:59:20;;;;;;;6.30;2.30;;;7.30;99.90;;;;;;4851633;29;20044;-84
2022/05/30 02:01:46;;;;;;;4.80;2.00;;;7.30;99.90;;;;;;4867354;29;20136;-87
2022/05/30 02:04:13;;;;;;;6.13;2.30;;;7.30;99.90;;;;;;4865245;29;20110;-87
2022/05/30 02:06:39;;;;;;;7.27;2.20;;;7.30;99.90;;;;;;4881998;29;20054;-87
2022/05/30 02:09:05;;;;;;;3.10;1.80;;;7.30;99.90;;;;;;4874163;29;20427;-84
2022/05/30 02:11:32;;;;;;;4.77;2.00;;;7.30;99.90;;;;;;4861130;29;20054;-84
2022/05/30 02:13:57;;;;;;;7.13;1.97;;;7.30;99.90;;;;;;4872461;29;20037;-84
2022/05/30 02:19:09;;;;;;;4.67;1.87;;;7.30;99.90;;;;;;4879602;29;20515;-84
2022/05/30 02:21:35;;;;;;;3.93;1.80;;;7.30;99.90;;;;;;4897569;29;20410;-84
2022/05/30 02:24:06;;;;;;;5.00;1.90;;;7.30;99.90;;;;;;4899266;29;20414;-84
2022/05/30 02:26:34;;;;;;;4.80;1.90;;;7.30;99.90;;;;;;4867511;29;20729;-84
2022/05/30 02:29:00;;;;;;;2.60;1.70;;;7.20;99.90;;;;;;4888969;29;20103;-84
2022/05/30 02:31:27;;;;;;;5.93;2.10;;;7.30;99.90;;;;;;4882737;29;20107;-84
2022/05/30 02:36:40;;;;;;;6.47;1.97;;;7.20;99.90;;;;;;4884825;29;20108;-83
2022/05/30 02:39:14;;;;;;;5.70;2.40;;;7.10;99.90;;;;;;4875980;29;20055;-84
2022/05/30 02:41:41;;;;;;;6.10;1.90;;;7.10;99.90;;;;;;4889509;29;20290;-83
2022/05/30 02:44:08;;;;;;;6.97;2.37;;;7.10;99.90;;;;;;4882451;29;20040;-84
2022/05/30 02:46:34;;;;;;;7.07;2.47;;;7.10;99.90;;;;;;4882250;29;20051;-83
2022/05/30 02:49:00;;;;;;;3.43;1.80;;;7.10;99.90;;;;;;4864359;29;20123;-83
2022/05/30 02:51:26;;;;;;;6.13;2.00;;;7.00;99.90;;;;;;4866513;29;20189;-83
2022/05/30 02:53:52;;;;;;;7.43;2.67;;;7.00;99.90;;;;;;4897743;29;20407;-83
2022/05/30 02:56:18;;;;;;;4.60;1.90;;;7.00;99.90;;;;;;4890784;29;20045;-83
2022/05/30 02:58:44;;;;;;;6.30;1.87;;;6.90;99.90;;;;;;4852676;29;20611;-83
2022/05/30 03:01:11;;;;;;;6.67;2.00;;;7.00;99.90;;;;;;4888370;29;20041;-82
2022/05/30 03:03:37;;;;;;;5.20;2.10;;;6.90;99.90;;;;;;4918071;29;20073;-82
2022/05/30 03:06:04;;;;;;;7.00;2.40;;;6.90;99.90;;;;;;4873950;29;20040;-83
2022/05/30 03:08:30;;;;;;;4.53;1.80;;;6.90;99.90;;;;;;4873563;29;20104;-83
2022/05/30 03:10:56;;;;;;;6.07;2.07;;;6.80;99.90;;;;;;4882206;29;20059;-83
2022/05/30 03:13:21;;;;;;;4.67;2.57;;;6.80;99.90;;;;;;4897078;29;20048;-83
2022/05/30 03:15:47;;;;;;;2.87;1.70;;;6.80;99.90;;;;;;4867271;29;20479;-83
2022/05/30 03:18:13;;;;;;;5.97;2.20;;;6.80;99.90;;;;;;4867037;29;20060;-83
2022/05/30 03:20:39;;;;;;;3.10;2.17;;;6.70;99.90;;;;;;4882931;29;20089;-83
2022/05/30 03:23:06;;;;;;;4.03;1.77;;;6.70;99.90;;;;;;4866170;29;20157;-83
2022/05/30 03:25:31;;;;;;;4.93;2.20;;;6.70;99.90;;;;;;4867517;29;20056;-83
2022/05/30 03:27:57;;;;;;;6.67;2.07;;;6.70;99.90;;;;;;4898610;29;20040;-83
2022/05/30 03:30:23;;;;;;;5.20;2.20;;;6.70;99.90;;;;;;4886129;29;20132;-83
2022/05/30 03:32:49;;;;;;;7.20;2.27;;;6.60;99.90;;;;;;4874453;29;20048;-83
2022/05/30 03:35:16;;;;;;;4.33;1.83;;;6.50;99.90;;;;;;4882291;29;20099;-83
2022/05/30 03:37:43;;;;;;;5.30;1.97;;;6.60;99.90;;;;;;4899020;29;20081;-83
2022/05/30 03:40:11;;;;;;;5.83;2.00;;;6.60;99.90;;;;;;4879647;29;20112;-83
2022/05/30 03:42:37;;;;;;;6.73;2.27;;;6.60;99.90;;;;;;4868291;29;20394;-83
2022/05/30 03:45:05;;;;;;;2.50;1.70;;;6.60;99.90;;;;;;4898586;29;20047;-83
2022/05/30 03:47:39;;;;;;;4.00;1.90;;;6.50;99.90;;;;;;4871781;29;20104;-83
2022/05/30 03:50:06;;;;;;;3.60;1.80;;;6.60;99.90;;;;;;4881910;29;20059;-84
2022/05/30 03:52:32;;;;;;;2.87;1.70;;;6.50;99.90;;;;;;4850850;29;20040;-83
2022/05/30 03:54:57;;;;;;;4.47;2.00;;;6.60;99.90;;;;;;4866193;29;20052;-84
2022/05/30 03:57:23;;;;;;;3.47;1.80;;;6.60;99.90;;;;;;4879146;29;20407;-83
2022/05/30 03:59:49;;;;;;;2.40;1.80;;;6.50;99.90;;;;;;4897057;29;20063;-84
2022/05/30 04:02:15;;;;;;;3.10;2.07;;;6.50;99.90;;;;;;4873946;29;20044;-83
2022/05/30 04:04:41;;;;;;;4.30;2.20;;;6.50;99.90;;;;;;4866098;29;20072;-83
2022/05/30 04:07:07;;;;;;;5.00;2.63;;;6.60;99.90;;;;;;4865654;29;20050;-83
2022/05/30 04:09:33;;;;;;;3.13;2.00;;;6.60;99.90;;;;;;4881558;29;20100;-83
2022/05/30 04:11:58;;;;;;;3.90;1.90;;;6.60;99.90;;;;;;4888645;29;20045;-83
2022/05/30 04:14:24;;;;;;;4.07;2.30;;;6.70;99.90;;;;;;4851687;29;20138;-83
2022/05/30 04:16:50;;;;;;;3.93;2.33;;;6.70;99.90;;;;;;4850644;29;20052;-83
2022/05/30 04:19:16;;;;;;;6.27;2.70;;;6.70;99.90;;;;;;4865516;29;20614;-83
2022/05/30 04:21:41;;;;;;;5.47;2.30;;;6.80;99.90;;;;;;4870783;29;20099;-83
2022/05/30 04:24:07;;;;;;;5.10;2.43;;;6.80;99.90;;;;;;4880987;29;20406;-82
2022/05/30 04:26:33;;;;;;;4.57;2.30;;;6.80;99.90;;;;;;4877349;29;20044;-83
2022/05/30 04:28:59;;;;;;;5.13;2.10;;;6.80;99.90;;;;;;4865347;29;20045;-83
2022/05/30 04:31:25;;;;;;;4.17;2.27;;;6.90;99.90;;;;;;4865121;29;20204;-82
2022/05/30 04:33:50;;;;;;;6.33;2.57;;;6.80;99.90;;;;;;4880682;29;20044;-83
2022/05/30 04:36:16;;;;;;;6.80;2.90;;;6.80;99.90;;;;;;4869823;29;20135;-83
2022/05/30 04:38:42;;;;;;;5.17;2.40;;;6.90;99.90;;;;;;4889000;29;20473;-83
2022/05/30 04:41:08;;;;;;;4.47;2.27;;;6.90;99.90;;;;;;4865436;29;20080;-83
2022/05/30 04:43:34;;;;;;;5.43;2.60;;;7.00;99.90;;;;;;4880877;29;20036;-83
2022/05/30 04:46:15;;;;;;;3.97;2.53;;;7.10;99.90;;;;;;4880618;29;20499;-83
2022/05/30 04:48:41;;;;;;;5.87;2.40;;;7.10;99.90;;;;;;4884377;29;20054;-86
2022/05/30 04:51:08;;;;;;;4.37;2.70;;;7.10;99.90;;;;;;4865283;29;20131;-86
2022/05/30 04:53:34;;;;;;;9.27;3.17;;;7.20;99.90;;;;;;4865072;29;20048;-86
2022/05/30 04:56:00;;;;;;;4.97;2.27;;;7.30;99.90;;;;;;4883372;29;20075;-86
2022/05/30 04:58:30;;;;;;;6.13;2.50;;;7.30;99.90;;;;;;4868688;29;20056;-87
2022/05/30 05:01:01;;;;;;;7.27;2.87;;;7.40;99.90;;;;;;4865177;29;20096;-87
2022/05/30 05:03:29;;;;;;;6.30;2.70;;;7.40;99.90;;;;;;4861898;29;20045;-87
2022/05/30 05:06:06;;;;;;;7.33;3.17;;;7.50;99.90;;;;;;4861848;29;20045;-87
2022/05/30 05:08:47;;;;;;;5.17;2.73;;;7.50;99.90;;;;;;4846702;29;20053;-87
2022/05/30 05:11:12;;;;;;;6.30;2.97;;;7.50;99.90;;;;;;4879349;29;20056;-86
2022/05/30 05:13:39;;;;;;;7.33;2.90;;;7.50;99.90;;;;;;4878706;29;20048;-87
2022/05/30 05:16:05;;;;;;;7.13;2.80;;;7.60;99.90;;;;;;4876309;29;20047;-87
2022/05/30 05:18:31;;;;;;;5.30;2.50;;;7.60;99.90;;;;;;4864464;29;20139;-83
2022/05/30 05:20:56;;;;;;;7.07;2.80;;;7.60;99.90;;;;;;4894041;29;20104;-83
2022/05/30 05:23:22;;;;;;;7.40;2.97;;;7.60;99.90;;;;;;4875530;29;20056;-83
2022/05/30 05:25:48;;;;;;;5.53;2.67;;;7.70;99.90;;;;;;4846162;29;20105;-84
2022/05/30 05:28:13;;;;;;;8.20;3.20;;;7.70;99.90;;;;;;4879339;29;20044;-84
2022/05/30 05:30:41;;;;;;;4.20;3.00;;;7.80;99.90;;;;;;4851268;29;20077;-84
2022/05/30 05:33:07;;;;;;;4.97;2.50;;;7.80;99.90;;;;;;4883849;29;20113;-80
2022/05/30 05:35:33;;;;;;;7.57;2.70;;;7.90;99.90;;;;;;4880808;29;20048;-80
2022/05/30 05:38:00;;;;;;;6.83;3.03;;;8.00;99.90;;;;;;4873674;29;20517;-83
2022/05/30 05:40:28;;;;;;;4.73;2.57;;;8.00;99.90;;;;;;4897605;29;20140;-83
2022/05/30 05:42:54;;;;;;;6.17;2.70;;;8.10;99.90;;;;;;4882351;29;20123;-83
2022/05/30 05:45:20;;;;;;;5.70;2.90;;;8.20;99.90;;;;;;4863372;29;20051;-82
2022/05/30 05:47:47;;;;;;;7.17;2.80;;;8.20;99.90;;;;;;4859546;29;20049;-83
2022/05/30 05:50:12;;;;;;;5.70;2.50;;;8.30;99.90;;;;;;4882068;29;20120;-83
2022/05/30 05:52:38;;;;;;;5.80;2.73;;;8.40;99.90;;;;;;4880040;29;20044;-83
2022/05/30 05:55:04;;;;;;;2.90;2.33;;;8.50;99.90;;;;;;4864975;29;20040;-83
2022/05/30 05:57:30;;;;;;;7.30;3.30;;;8.60;99.90;;;;;;4859120;29;20072;-83
2022/05/30 05:59:56;;;;;;;7.40;2.93;;;8.60;99.90;;;;;;4857794;29;20082;-83
2022/05/30 06:02:27;;;;;;;6.53;2.70;;;8.60;99.90;;;;;;4876060;29;20463;-85
2022/05/30 06:04:54;;;;;;;7.28;3.08;;;8.70;99.90;;;;;;4898886;29;20045;-84
2022/05/30 06:07:20;;;;;;;5.87;2.60;;;8.60;99.90;;;;;;4867886;29;20056;-83
2022/05/30 06:09:46;;;;;;;4.17;2.97;;;8.70;99.90;;;;;;4899373;29;20049;-82
2022/05/30 06:12:11;;;;;;;5.47;2.70;;;8.80;99.90;;;;;;4867948;29;20443;-83
2022/05/30 06:14:37;;;;;;;5.03;2.80;;;8.80;99.90;;;;;;4882489;29;20494;-83
2022/05/30 06:17:03;;;;;;;3.27;2.30;;;8.90;99.90;;;;;;4851515;29;20388;-83
2022/05/30 06:19:29;;;;;;;5.73;2.50;;;8.90;99.90;;;;;;4867043;29;20052;-83
2022/05/30 06:21:55;;;;;;;3.60;2.43;;;9.00;99.90;;;;;;4851022;29;20491;-84
2022/05/30 06:24:21;;;;;;;4.07;2.30;;;9.10;99.90;;;;;;4881950;29;20045;-83
2022/05/30 06:26:47;;;;;;;3.60;2.03;;;9.30;99.90;;;;;;4870698;29;20045;-84
2022/05/30 06:29:15;;;;;;;5.73;2.10;;;9.60;99.90;;;;;;4866947;29;20045;-83
2022/05/30 06:31:41;;;;;;;2.77;1.90;;;9.90;99.90;;;;;;4874486;29;20371;-82
2022/05/30 06:34:07;;;;;;;5.60;2.30;;;10.20;99.90;;;;;;4868133;29;20052;-83
2022/05/30 06:36:35;;;;;;;2.03;1.77;;;10.50;99.90;;;;;;4899242;29;20048;-83
2022/05/30 06:39:01;;;;;;;7.20;1.70;;;10.80;99.90;;;;;;4875031;29;20037;-83
2022/05/30 06:41:30;;;;;;;4.37;1.10;;;11.10;99.90;;;;;;4883609;29;20471;-83
2022/05/30 06:44:04;;;;;;;2.63;0.70;;;11.20;99.90;;;;;;4850278;29;20080;-83
2022/05/30 06:46:31;;;;;;;5.13;1.10;;;11.20;99.90;;;;;;4880299;29;20640;-83
2022/05/30 06:48:57;;;;;;;1.13;0.80;;;11.40;99.90;;;;;;4867721;29;20372;-83
2022/05/30 06:51:25;;;;;;;4.33;1.10;;;11.40;99.90;;;;;;4867344;29;20041;-83
2022/05/30 06:53:52;;;;;;;1.90;0.80;;;11.50;99.90;;;;;;4881404;29;20047;-82
2022/05/30 06:56:27;;;;;;;1.90;1.00;;;11.60;99.90;;;;;;4882716;29;20047;-83
2022/05/30 06:58:53;;;;;;;1.83;0.97;;;11.90;99.90;;;;;;4867402;29;20044;-84
2022/05/30 07:01:22;;;;;;;1.57;0.77;;;12.20;99.90;;;;;;4846910;29;20044;-83
2022/05/30 07:03:48;;;;;;;3.43;1.17;;;12.30;99.90;;;;;;4876377;29;20032;-85
2022/05/30 07:06:17;;;;;;;2.00;0.60;;;12.30;99.90;;;;;;4862449;29;20040;-84
2022/05/30 07:08:45;;;;;;;1.97;0.80;;;12.20;99.90;;;;;;4863019;29;20041;-83
2022/05/30 07:11:13;;;;;;;2.53;0.60;;;12.10;99.90;;;;;;4868240;29;20052;-82
2022/05/30 07:13:39;;;;;;;1.57;0.70;;;12.10;99.90;;;;;;4860133;29;20036;-82
2022/05/30 07:16:05;;;;;;;1.73;0.80;;;12.10;99.90;;;;;;4862437;29;20410;-83
2022/05/30 07:18:31;;;;;;;1.77;0.80;;;12.10;99.90;;;;;;4863266;29;20056;-83
2022/05/30 07:20:58;;;;;;;2.07;0.87;;;12.10;99.90;;;;;;4863144;29;20052;-83
2022/05/30 07:23:25;;;;;;;2.50;0.70;;;12.20;99.90;;;;;;4861481;29;20043;-81
2022/05/30 07:25:56;;;;;;;1.07;0.87;;;12.10;99.90;;;;;;4863178;29;20411;-81
2022/05/30 07:28:22;;;;;;;1.77;0.80;;;12.10;99.90;;;;;;4861827;29;20044;-81
2022/05/30 07:30:47;;;;;;;2.23;1.00;;;12.30;99.90;;;;;;4862204;29;20136;-81
2022/05/30 07:33:13;;;;;;;1.10;0.73;;;12.40;99.90;;;;;;4878791;29;20048;-81
2022/05/30 07:35:42;;;;;;;2.53;0.87;;;12.50;99.90;;;;;;4897678;29;20036;-83
2022/05/30 07:38:08;;;;;;;1.70;0.90;;;12.60;99.90;;;;;;4878810;29;20414;-81
2022/05/30 07:40:34;;;;;;;2.40;0.77;;;12.80;99.90;;;;;;4847035;29;20076;-81
2022/05/30 07:43:00;;;;;;;2.60;0.90;;;13.00;99.90;;;;;;4877278;29;20045;-82
2022/05/30 07:45:25;;;;;;;1.77;0.70;;;13.20;99.90;;;;;;4877851;29;20049;-82
2022/05/30 07:47:51;;;;;;;1.17;0.70;;;13.40;99.90;;;;;;4863219;29;20148;-82
2022/05/30 07:50:17;;;;;;;2.30;0.77;;;13.50;99.90;;;;;;4894387;29;20426;-82
2022/05/30 07:52:43;;;;;;;2.00;0.70;;;13.30;99.90;;;;;;4878707;29;20041;-83
2022/05/30 07:55:09;;;;;;;1.10;0.60;;;13.40;99.90;;;;;;4863093;29;20486;-80
2022/05/30 08:00:22;;;;;;;1.33;0.50;;;13.70;99.90;;;;;;4873982;29;20044;-82
2022/05/30 08:02:48;;;;;;;1.20;0.43;;;13.80;99.90;;;;;;4877765;29;20044;-83
2022/05/30 08:05:15;;;;;;;1.23;0.50;;;13.90;99.90;;;;;;4844593;29;20037;-80
2022/05/30 08:07:45;;;;;;;1.90;0.70;;;14.10;99.90;;;;;;4864271;29;20040;-84
2022/05/30 08:10:13;;;;;;;0.90;0.80;;;14.10;99.90;;;;;;4879695;29;20052;-84
2022/05/30 08:12:39;;;;;;;1.33;0.73;;;13.90;99.90;;;;;;4883820;29;20226;-85
2022/05/30 08:15:06;;;;;;;0.70;0.70;;;13.80;99.90;;;;;;4879259;29;20049;-86
2022/05/30 08:17:32;;;;;;;0.87;0.70;;;13.50;99.90;;;;;;4874050;29;20055;-85
2022/05/30 08:19:59;;;;;;;0.97;0.50;;;13.30;99.90;;;;;;4863711;29;20040;-86
2022/05/30 08:22:25;;;;;;;6.50;1.63;;;13.20;99.90;;;;;;4873758;29;20143;-86
2022/05/30 08:24:55;;;;;;;0.50;0.50;;;13.30;99.90;;;;;;4863243;29;20068;-86
2022/05/30 08:27:21;;;;;;;0.87;0.70;;;13.30;99.90;;;;;;4877294;29;20072;-86
2022/05/30 08:29:47;;;;;;;0.97;0.70;;;13.30;99.90;;;;;;4878505;29;20160;-86
2022/05/30 08:32:13;;;;;;;0.60;0.60;;;13.20;99.90;;;;;;4876277;29;20441;-86
2022/05/30 08:34:40;;;;;;;0.93;0.60;;;13.20;99.90;;;;;;4862183;29;20036;-86
2022/05/30 08:37:07;;;;;;;2.30;0.70;;;13.20;99.90;;;;;;4861075;29;20144;-85
2022/05/30 08:42:23;;;;;;;1.40;0.60;;;13.10;99.90;;;;;;4876967;29;20491;-86
2022/05/30 08:44:49;;;;;;;2.30;0.70;;;13.00;99.90;;;;;;4861200;29;20068;-84
2022/05/30 08:47:26;;;;;;;1.70;0.60;;;13.00;99.90;;;;;;4848365;29;20119;-85
2022/05/30 08:49:56;;;;;;;1.17;0.80;;;12.90;99.90;;;;;;4890808;29;20087;-86
2022/05/30 08:52:37;;;;;;;0.80;0.60;;;12.70;99.90;;;;;;4893232;29;20124;-86
2022/05/30 08:55:12;;;;;;;1.27;0.70;;;12.50;99.90;;;;;;4862617;29;20097;-84
2022/05/30 08:58:09;;;;;;;2.30;0.80;;;12.20;99.90;;;;;;4872166;29;20131;-85
2022/05/30 09:00:49;;;;;;;1.17;0.73;;;11.90;99.90;;;;;;4859153;29;20062;-83
2022/05/30 09:03:31;;;;;;;3.23;0.90;;;11.70;99.90;;;;;;4873063;29;20052;-84
2022/05/30 09:06:02;;;;;;;2.83;0.70;;;11.60;99.90;;;;;;4872402;29;20759;-84
2022/05/30 09:08:57;;;;;;;1.33;0.70;;;11.50;99.90;;;;;;4878182;29;20043;-83
2022/05/30 09:11:34;;;;;;;2.27;0.80;;;11.50;99.90;;;;;;4860661;29;20063;-83
2022/05/30 09:14:05;;;;;;;1.07;0.90;;;11.50;99.90;;;;;;4878008;29;20529;-84
2022/05/30 09:16:39;;;;;;;1.70;0.80;;;11.50;99.90;;;;;;4878011;29;20104;-84
2022/05/30 09:19:08;;;;;;;1.33;0.70;;;11.60;99.90;;;;;;4887897;29;20303;-85
2022/05/30 09:21:36;;;;;;;2.87;1.07;;;11.60;99.90;;;;;;4862607;29;20085;-84
2022/05/30 09:24:02;;;;;;;1.87;0.80;;;11.60;99.90;;;;;;4846001;29;20046;-84
2022/05/30 09:26:33;;;;;;;2.90;0.90;;;11.70;99.90;;;;;;4888306;29;20037;-84
2022/05/30 09:29:27;;;;;;;2.33;0.70;;;11.80;99.90;;;;;;4881708;29;20048;-84
2022/05/30 09:32:20;;;;;;;2.20;1.00;;;12.00;99.90;;;;;;4870975;29;20049;-84
2022/05/30 09:34:49;;;;;;;2.13;0.70;;;12.20;99.90;;;;;;4876731;29;20045;-84
2022/05/30 09:37:38;;;;;;;2.73;0.90;;;12.30;99.90;;;;;;4873347;29;20044;-85
2022/05/30 09:40:04;;;;;;;0.97;0.60;;;12.50;99.90;;;;;;4889894;29;20049;-84
2022/05/30 09:42:37;;;;;;;1.47;0.60;;;12.40;99.90;;;;;;4877836;29;20111;-84
2022/05/30 09:45:12;;;;;;;0.50;0.47;;;12.50;99.90;;;;;;4878996;29;20048;-83
2022/05/30 09:48:00;;;;;;;1.00;0.57;;;12.50;99.90;;;;;;4878356;29;20590;-85
2022/05/30 09:50:26;;;;;;;5.10;0.70;;;12.50;99.90;;;;;;4878689;29;20197;-84
2022/05/30 09:52:52;;;;;;;1.53;0.50;;;12.50;99.90;;;;;;4879359;29;20143;-84
2022/05/30 09:55:24;;;;;;;1.50;0.67;;;12.50;99.90;;;;;;4863867;29;20077;-83
2022/05/30 09:57:51;;;;;;;0.82;0.50;;;12.50;99.90;;;;;;4878819;29;20059;-83
2022/05/30 10:00:21;;;;;;;1.37;0.50;;;12.40;99.90;;;;;;4847578;29;20421;-82
2022/05/30 10:03:13;;;;;;;1.67;0.77;;;12.40;99.90;;;;;;4878268;29;20041;-81
2022/05/30 10:05:40;;;;;;;0.75;0.50;;;12.40;99.90;;;;;;4876414;29;20055;-83
2022/05/30 10:08:30;;;;;;;2.23;0.60;;;12.40;99.90;;;;;;4878636;29;20127;-82
2022/05/30 10:10:59;;;;;;;0.87;0.70;;;12.30;99.90;;;;;;4862612;29;20044;-83
2022/05/30 10:13:38;;;;;;;1.83;0.70;;;12.10;99.90;;;;;;4859431;29;20044;-81
2022/05/30 10:16:12;;;;;;;2.90;0.60;;;11.90;99.90;;;;;;4877836;29;20116;-83
2022/05/30 10:18:55;;;;;;;0.87;0.60;;;11.50;99.90;;;;;;4862255;29;20072;-83
2022/05/30 10:21:39;;;;;;;0.60;0.60;;;11.40;99.90;;;;;;4873098;29;20040;-84
2022/05/30 10:30:34;;;;;;;1.07;0.70;;;10.90;99.90;;;;;;4891972;29;20081;-83
2022/05/30 10:33:15;;;;;;;0.63;0.60;;;10.90;99.90;;;;;;4863813;29;20071;-82
2022/05/30 10:36:08;;;;;;;0.50;0.50;;;10.80;99.90;;;;;;4878001;29;20132;-84
2022/05/30 10:39:03;;;;;;;1.87;0.60;;;10.90;99.90;;;;;;4875250;29;20159;-83
2022/05/30 10:41:41;;;;;;;0.90;0.60;;;10.90;99.90;;;;;;4844869;29;20047;-83
2022/05/30 10:44:26;;;;;;;1.17;0.50;;;10.90;99.90;;;;;;4878684;29;20033;-84
2022/05/30 10:47:48;;;;;;;2.37;0.50;;;11.00;99.90;;;;;;4890965;29;20049;-84
2022/05/30 10:50:20;;;;;;;0.90;0.60;;;11.10;99.90;;;;;;4792618;29;20103;-83
2022/05/30 10:53:02;;;;;;;0.90;0.60;;;11.30;99.90;;;;;;4857947;29;20061;-83
2022/05/30 10:55:38;;;;;;;1.00;0.73;;;11.50;99.90;;;;;;4879916;29;20040;-82
2022/05/30 10:58:25;;;;;;;1.97;0.50;;;11.60;99.90;;;;;;4892403;29;20070;-83
2022/05/30 11:00:57;;;;;;;0.93;0.40;;;11.80;99.90;;;;;;4864928;29;20516;-83
2022/05/30 11:03:32;;;;;;;1.20;0.45;;;11.90;99.90;;;;;;4862832;29;20091;-84
2022/05/30 11:06:28;;;;;;;0.97;0.50;;;12.10;99.90;;;;;;4881341;29;20044;-84
2022/05/30 11:09:18;;;;;;;1.10;0.40;;;12.20;99.90;;;;;;4882277;29;20049;-84
2022/05/30 11:11:47;;;;;;;0.40;0.30;;;12.40;99.90;;;;;;4867252;29;20046;-83
2022/05/30 11:14:40;;;;;;;0.40;0.30;;;12.40;99.90;;;;;;4882453;29;20052;-83
2022/05/30 11:17:11;;;;;;;0.60;0.60;;;12.50;99.90;;;;;;4863872;29;20095;-83
2022/05/30 11:20:11;;;;;;;1.17;0.40;;;12.70;99.90;;;;;;4864058;29;20041;-82
2022/05/30 11:22:50;;;;;;;0.80;0.40;;;12.80;99.90;;;;;;4867363;29;20669;-86
2022/05/30 11:25:23;;;;;;;0.30;0.30;;;12.90;99.90;;;;;;4851289;29;20567;-87
2022/05/30 11:27:55;;;;;;;0.43;0.43;;;13.00;99.90;;;;;;4863924;29;20041;-86
2022/05/30 11:30:44;;;;;;;1.45;0.40;;;13.10;99.90;;;;;;4863584;29;20080;-87
2022/05/30 11:33:52;;;;;;;1.33;0.50;;;13.10;99.90;;;;;;4863815;29;20144;-85
2022/05/30 11:36:38;;;;;;;1.07;0.50;;;13.10;99.90;;;;;;4860514;29;20514;-86
2022/05/30 11:39:16;;;;;;;0.60;0.40;;;13.20;99.90;;;;;;4864311;29;20068;-84
2022/05/30 11:41:46;;;;;;;0.57;0.30;;;13.10;99.90;;;;;;4874443;29;20041;-85
2022/05/30 11:44:36;;;;;;;1.17;0.40;;;13.10;99.90;;;;;;4862434;29;20397;-84
2022/05/30 11:47:07;;;;;;;0.87;0.70;;;13.10;99.90;;;;;;4877334;29;20116;-85
2022/05/30 11:50:01;;;;;;;0.40;0.40;;;13.10;99.90;;;;;;4862343;29;20044;-84
2022/05/30 11:53:03;;;;;;;1.30;0.50;;;13.20;99.90;;;;;;4859200;29;20072;-83
2022/05/30 11:55:48;;;;;;;;;;;13.20;99.90;;;;;;4877629;29;20055;-84
2022/05/30 11:58:20;;;;;;;2.00;0.63;;;13.10;99.90;;;;;;4866852;29;19930;-84
2022/05/30 12:00:50;;;;;;;1.47;0.50;;;13.10;99.90;;;;;;4878319;29;20076;-84
2022/05/30 12:03:58;;;;;;;0.60;0.60;;;13.10;99.90;;;;;;4861479;29;20056;-82
2022/05/30 12:07:14;;;;;;;0.63;0.60;;;13.10;99.90;;;;;;4858998;29;20513;-82
2022/05/30 12:09:59;;;;;;;1.70;0.70;;;12.90;99.90;;;;;;4873087;29;20044;-81
2022/05/30 12:12:49;;;;;;;1.20;0.60;;;12.70;99.90;;;;;;4869716;29;20041;-83
2022/05/30 12:15:42;;;;;;;0.60;0.60;;;12.40;99.90;;;;;;4870148;29;20041;-82
2022/05/30 12:24:12;;;;;;;0.93;0.60;;;11.80;99.90;;;;;;4875808;29;20184;-83
2022/05/30 12:26:56;;;;;;;0.40;0.40;;;11.70;99.90;;;;;;4878844;29;20052;-84
2022/05/30 12:29:37;;;;;;;1.03;0.67;;;11.80;99.90;;;;;;4850495;29;20054;-83
2022/05/30 12:32:32;;;;;;;1.33;0.70;;;11.70;99.90;;;;;;4870980;29;20080;-83
2022/05/30 12:35:01;;;;;;;0.60;0.60;;;11.70;99.90;;;;;;4875850;29;20049;-84
2022/05/30 12:37:44;;;;;;;0.70;0.67;;;11.70;99.90;;;;;;4862110;29;20059;-84
2022/05/30 12:40:27;;;;;;;0.63;0.50;;;11.80;99.90;;;;;;4856921;29;20044;-85
2022/05/30 12:43:32;;;;;;;0.87;0.50;;;11.90;99.90;;;;;;4844228;29;20044;-85
2022/05/30 12:45:58;;;;;;;0.70;0.60;;;12.00;99.90;;;;;;4854258;29;20044;-84
2022/05/30 12:48:37;;;;;;;1.17;0.60;;;12.20;99.90;;;;;;4879614;29;20495;-85
2022/05/30 12:51:15;;;;;;;1.90;0.63;;;12.30;99.90;;;;;;4862987;29;20820;-85
2022/05/30 12:53:58;;;;;;;0.80;0.80;;;12.50;99.90;;;;;;4862869;29;20483;-85
2022/05/30 12:56:39;;;;;;;1.93;0.77;;;12.70;99.90;;;;;;4861602;29;20087;-84
2022/05/30 12:59:11;;;;;;;0.80;0.80;;;12.80;99.90;;;;;;4864956;29;20135;-84
2022/05/30 13:01:43;;;;;;;2.28;0.93;;;13.00;99.90;;;;;;4865853;29;20143;-85
2022/05/30 13:04:26;;;;;;;0.90;0.90;;;13.10;99.90;;;;;;4863013;29;20041;-85
2022/05/30 13:06:58;;;;;;;1.57;0.93;;;13.20;99.90;;;;;;4861594;29;20049;-84
2022/05/30 13:09:25;;;;;;;1.75;1.10;;;13.50;99.90;;;;;;4878771;29;20053;-84
2022/05/30 13:12:02;;;;;;;1.80;1.10;;;13.70;99.90;;;;;;4887314;29;20037;-84
2022/05/30 13:14:31;;;;;;;2.30;0.90;;;13.90;99.90;;;;;;4882180;29;20050;-83
2022/05/30 13:17:12;;;;;;;1.40;1.00;;;13.90;99.90;;;;;;4883261;29;20040;-84
2022/05/30 13:19:45;;;;;;;1.67;0.85;;;14.00;99.90;;;;;;4870984;29;20045;-84
2022/05/30 13:22:11;;;;;;;1.33;0.93;;;14.00;99.90;;;;;;4877365;29;20033;-85
2022/05/30 13:24:38;;;;;;;1.87;0.90;;;14.00;99.90;;;;;;4858184;29;20083;-85
2022/05/30 13:27:05;;;;;;;0.97;0.87;;;14.00;99.90;;;;;;4875610;29;20068;-85
2022/05/30 13:29:39;;;;;;;1.53;1.20;;;13.90;99.90;;;;;;4868065;29;20538;-85
2022/05/30 13:32:11;;;;;;;1.57;0.90;;;14.00;99.90;;;;;;4883066;29;20048;-83
2022/05/30 13:34:44;;;;;;;2.15;0.90;;;14.10;99.90;;;;;;4876325;29;20082;-81
2022/05/30 13:37:10;;;;;;;2.60;1.00;;;14.00;99.90;;;;;;4872568;29;20037;-84
2022/05/30 13:39:36;;;;;;;1.63;1.20;;;13.90;99.90;;;;;;4881005;29;20077;-85
2022/05/30 13:42:02;;;;;;;2.13;1.33;;;13.90;99.90;;;;;;4866229;29;20045;-84
2022/05/30 13:44:32;;;;;;;2.60;1.13;;;13.90;99.90;;;;;;4865955;29;20104;-84